Turriff, United Kingdom
Current Conditions -  °F | °C
As of 8:50 AM on Friday 28 Nov 2014 (Local Time) from EGPD Reporting Station
Light Rain Light Rain  
Wind Chill: 50°   Ceiling: 400
Heat Index: 50°   Visibility: 3mi
Dew Point: 50°   Wind: 15mph
Humidity: 100%   Direction: 130°SE
Pressure: 29.8"   Gusts: NA
Location:  57.54°N, 2.46°W
Report Text: EGPD 280850Z 13013KT 4800 -RA BR BKN004 10/10 Q1009 TEMPO BKN006
Loading
Personal Weather Stations






























Interactive Weather Map New forecast layout! Learn more

10-Day Weather Forecast

Advertisements
Track Severe Weather on mobile